createdAt,value
2019-01-29T00:01:32.853Z,77.50
2019-01-29T00:04:00.990Z,77.70
2019-01-29T00:06:29.183Z,77.30
2019-01-29T00:08:57.855Z,77.00
2019-01-29T00:11:26.020Z,77.60
2019-01-29T00:13:53.973Z,77.70
2019-01-29T00:16:22.542Z,77.70
2019-01-29T00:18:51.106Z,77.40
2019-01-29T00:21:19.138Z,77.80
2019-01-29T00:23:47.745Z,78.00
2019-01-29T00:26:16.169Z,78.00
2019-01-29T00:28:44.450Z,77.70
2019-01-29T00:31:12.827Z,77.50
2019-01-29T00:33:41.063Z,77.40
2019-01-29T00:36:09.366Z,77.50
2019-01-29T00:38:38.088Z,77.20
2019-01-29T00:41:06.198Z,77.40
2019-01-29T00:43:34.736Z,76.90
2019-01-29T00:46:03.246Z,76.80
2019-01-29T00:48:31.998Z,77.60
2019-01-29T00:51:00.147Z,77.30
2019-01-29T00:53:28.456Z,77.00
2019-01-29T00:55:56.493Z,76.90
2019-01-29T00:58:25.067Z,77.60
2019-01-29T01:00:53.259Z,77.50
2019-01-29T01:03:22.578Z,77.20
2019-01-29T01:05:50.838Z,76.60
2019-01-29T01:08:19.405Z,76.80
2019-01-29T01:10:47.543Z,77.40
2019-01-29T01:13:15.652Z,77.10
2019-01-29T01:15:43.815Z,77.00
2019-01-29T01:18:12.134Z,76.90
2019-01-29T01:20:40.534Z,77.50
2019-01-29T01:23:10.011Z,77.50
2019-01-29T01:25:38.112Z,77.10
2019-01-29T01:28:06.506Z,76.40
2019-01-29T01:30:36.581Z,77.00
2019-01-29T01:33:05.574Z,76.60
2019-01-29T01:35:34.877Z,76.40
2019-01-29T01:38:03.095Z,75.50
2019-01-29T01:40:31.188Z,76.00
2019-01-29T01:42:59.191Z,75.40
2019-01-29T01:45:28.260Z,74.80
2019-01-29T01:47:56.361Z,74.30
2019-01-29T01:50:24.651Z,74.70
2019-01-29T01:52:59.149Z,74.50
2019-01-29T01:55:22.651Z,74.40
2019-01-29T01:57:50.794Z,74.10
2019-01-29T02:00:20.262Z,74.60
2019-01-29T02:02:48.246Z,74.50
2019-01-29T02:05:16.356Z,74.90
2019-01-29T02:07:44.365Z,74.10
2019-01-29T02:10:25.433Z,73.90
2019-01-29T02:12:53.402Z,74.20
2019-01-29T02:15:22.525Z,74.60
2019-01-29T02:17:50.588Z,74.70
2019-01-29T02:20:18.605Z,74.70
2019-01-29T02:22:46.689Z,74.50
2019-01-29T02:25:14.848Z,74.60
2019-01-29T02:27:42.814Z,74.70
2019-01-29T02:30:14.940Z,74.10
2019-01-29T02:32:43.041Z,74.50
2019-01-29T02:35:11.185Z,74.00
2019-01-29T02:37:39.424Z,74.20
2019-01-29T02:40:16.199Z,74.10
2019-01-29T02:42:44.825Z,74.50
2019-01-29T02:45:13.306Z,75.40
2019-01-29T02:47:43.343Z,75.00
2019-01-29T02:50:11.727Z,75.00
2019-01-29T02:52:39.823Z,75.50
2019-01-29T02:55:09.010Z,74.70
2019-01-29T02:57:37.083Z,75.00
2019-01-29T03:00:14.091Z,74.70
2019-01-29T03:02:42.401Z,74.70
2019-01-29T03:05:10.754Z,75.20
2019-01-29T03:07:38.733Z,74.10
2019-01-29T03:10:09.455Z,75.00
2019-01-29T03:12:37.489Z,75.20
2019-01-29T03:15:07.221Z,74.60
2019-01-29T03:17:35.247Z,75.10
2019-01-29T03:20:05.359Z,75.50
2019-01-29T03:22:33.354Z,75.60
2019-01-29T03:25:01.401Z,75.60
2019-01-29T03:27:29.385Z,76.00
2019-01-29T03:29:57.426Z,75.40
2019-01-29T03:32:25.448Z,75.60
2019-01-29T03:34:53.525Z,75.90
2019-01-29T03:37:21.674Z,75.80
2019-01-29T03:39:49.918Z,76.00
2019-01-29T03:42:18.164Z,75.80
2019-01-29T03:44:46.252Z,76.00
2019-01-29T03:47:14.308Z,75.60
2019-01-29T03:49:42.368Z,75.00
2019-01-29T03:52:10.379Z,75.40
2019-01-29T03:54:38.403Z,75.40
2019-01-29T03:57:06.382Z,74.70
2019-01-29T03:59:34.390Z,75.20
2019-01-29T04:02:02.697Z,75.80
2019-01-29T04:04:30.739Z,75.40
2019-01-29T04:06:58.738Z,75.70
2019-01-29T04:09:26.779Z,75.50
2019-01-29T04:11:54.777Z,76.20
2019-01-29T04:14:22.786Z,76.00
2019-01-29T04:16:50.787Z,76.40
2019-01-29T04:19:19.358Z,76.90
2019-01-29T04:21:47.488Z,76.80
2019-01-29T04:24:15.683Z,77.10
2019-01-29T04:26:43.799Z,77.00
2019-01-29T04:29:11.778Z,76.60
2019-01-29T04:31:39.786Z,77.20
2019-01-29T04:34:07.856Z,76.90
2019-01-29T04:36:36.014Z,77.40
2019-01-29T04:39:07.159Z,77.80
2019-01-29T04:41:35.222Z,78.00
2019-01-29T04:44:03.361Z,78.80
2019-01-29T04:46:31.550Z,76.70
2019-01-29T04:48:59.514Z,77.00
2019-01-29T04:51:27.518Z,77.60
2019-01-29T04:53:57.615Z,77.50
2019-01-29T04:56:25.729Z,77.60
2019-01-29T04:58:53.830Z,76.90
2019-01-29T05:01:22.020Z,77.40
2019-01-29T05:03:50.186Z,77.00
2019-01-29T05:06:18.245Z,76.80
2019-01-29T05:08:48.856Z,76.20
2019-01-29T05:11:16.913Z,76.70
2019-01-29T05:13:44.879Z,77.60
2019-01-29T05:16:12.883Z,76.20
2019-01-29T05:18:40.835Z,76.90
2019-01-29T05:21:08.923Z,76.50
2019-01-29T05:23:36.967Z,76.20
2019-01-29T05:26:04.962Z,76.30
2019-01-29T05:28:32.949Z,77.00
2019-01-29T05:31:00.981Z,76.00
2019-01-29T05:33:29.297Z,76.30
2019-01-29T05:35:57.394Z,75.80
2019-01-29T05:38:25.434Z,73.70
2019-01-29T05:40:53.558Z,73.90
2019-01-29T05:43:21.678Z,74.60
2019-01-29T05:45:51.088Z,74.10
2019-01-29T05:48:19.163Z,74.50
2019-01-29T05:50:47.309Z,75.50
2019-01-29T05:53:15.823Z,74.90
2019-01-29T05:55:44.151Z,74.50
2019-01-29T05:58:13.514Z,73.80
2019-01-29T06:00:41.817Z,74.50
2019-01-29T06:03:10.359Z,74.40
2019-01-29T06:05:38.591Z,74.10
2019-01-29T06:08:06.879Z,73.80
2019-01-29T06:13:03.002Z,73.70
2019-01-29T06:15:31.223Z,74.00
2019-01-29T06:20:27.897Z,74.10
2019-01-29T06:23:07.228Z,74.20
2019-01-29T06:25:39.265Z,74.40
2019-01-29T06:28:07.256Z,73.80
2019-01-29T06:30:35.549Z,74.40
2019-01-29T06:33:03.691Z,74.50
2019-01-29T06:35:32.050Z,74.40
2019-01-29T06:40:28.368Z,73.90
2019-01-29T06:42:57.058Z,74.10
2019-01-29T06:45:26.155Z,74.60
2019-01-29T06:47:55.245Z,74.50
2019-01-29T06:50:24.726Z,74.70
2019-01-29T06:53:00.579Z,74.40
2019-01-29T06:55:28.825Z,74.60
2019-01-29T06:57:57.309Z,75.00
2019-01-29T07:00:27.806Z,75.20
2019-01-29T07:02:56.401Z,74.50
2019-01-29T07:05:24.358Z,74.40
2019-01-29T07:07:52.409Z,75.00
2019-01-29T07:10:20.685Z,75.40
2019-01-29T07:12:48.679Z,74.60
2019-01-29T07:15:39.093Z,74.50
2019-01-29T07:18:16.961Z,77.50
2019-01-29T07:20:45.065Z,78.10
2019-01-29T07:23:13.055Z,76.70
2019-01-29T07:25:41.056Z,74.50
2019-01-29T07:28:09.107Z,74.10
2019-01-29T07:30:37.193Z,74.70
2019-01-29T07:33:05.239Z,75.90
2019-01-29T07:35:33.324Z,74.70
2019-01-29T07:38:01.450Z,72.90
2019-01-29T07:40:29.464Z,73.50
2019-01-29T07:42:58.270Z,73.60
2019-01-29T07:45:26.680Z,73.80
2019-01-29T07:47:54.661Z,73.60
2019-01-29T07:50:22.689Z,74.70
2019-01-29T07:52:50.689Z,74.20
2019-01-29T07:55:18.867Z,74.10
2019-01-29T07:57:46.880Z,73.60
2019-01-29T08:00:16.192Z,72.60
2019-01-29T08:02:44.386Z,73.20
2019-01-29T08:05:12.400Z,73.00
2019-01-29T08:07:40.586Z,72.80
2019-01-29T08:10:13.929Z,72.80
2019-01-29T08:12:44.661Z,72.30
2019-01-29T08:15:12.753Z,72.60
2019-01-29T08:17:41.718Z,72.30
2019-01-29T08:20:10.262Z,72.40
2019-01-29T08:22:38.328Z,71.90
2019-01-29T08:25:06.521Z,71.70
2019-01-29T08:27:34.575Z,71.70
2019-01-29T08:30:03.742Z,71.60
2019-01-29T08:32:35.178Z,71.80
2019-01-29T08:35:03.508Z,70.50
2019-01-29T08:37:31.603Z,71.00
2019-01-29T08:40:03.241Z,71.60
2019-01-29T08:42:48.181Z,72.80
2019-01-29T08:45:18.489Z,72.30
2019-01-29T08:47:46.510Z,71.80
2019-01-29T08:50:18.534Z,72.60
2019-01-29T08:52:46.510Z,72.50
2019-01-29T08:55:14.912Z,72.60
2019-01-29T08:57:42.943Z,71.90
2019-01-29T09:00:13.483Z,72.20
2019-01-29T09:02:42.111Z,72.70
2019-01-29T09:05:10.149Z,73.30
2019-01-29T09:07:38.086Z,72.10
2019-01-29T09:10:08.304Z,71.40
2019-01-29T09:12:36.322Z,72.10
2019-01-29T09:15:08.557Z,71.40
2019-01-29T09:17:36.526Z,71.40
2019-01-29T09:20:05.205Z,70.70
2019-01-29T09:22:33.208Z,69.70
2019-01-29T09:25:01.447Z,69.40
2019-01-29T09:27:29.510Z,69.10
2019-01-29T09:29:57.424Z,70.00
2019-01-29T09:32:25.521Z,70.30
2019-01-29T09:34:53.652Z,70.60
2019-01-29T09:37:21.836Z,70.00
2019-01-29T09:39:49.906Z,70.50
2019-01-29T09:42:17.881Z,69.70
2019-01-29T09:44:46.028Z,69.20
2019-01-29T09:47:14.619Z,68.70
2019-01-29T09:49:42.816Z,69.60
2019-01-29T09:52:10.988Z,69.20
2019-01-29T09:54:39.525Z,67.20
2019-01-29T09:57:07.822Z,67.60
2019-01-29T09:59:35.878Z,67.10
2019-01-29T10:02:03.839Z,66.70
2019-01-29T10:04:33.166Z,67.60
2019-01-29T10:07:01.588Z,67.30
2019-01-29T10:09:29.581Z,67.30
2019-01-29T10:11:57.601Z,67.30
2019-01-29T10:14:25.623Z,67.80
2019-01-29T10:16:53.880Z,68.30
2019-01-29T10:19:21.953Z,68.30
2019-01-29T10:21:50.199Z,68.30
2019-01-29T10:24:18.169Z,67.20
2019-01-29T10:26:46.270Z,66.30
2019-01-29T10:29:14.432Z,67.40
2019-01-29T10:31:42.866Z,67.70
2019-01-29T10:34:11.047Z,66.60
2019-01-29T10:36:39.163Z,66.00
2019-01-29T10:39:10.015Z,64.10
2019-01-29T10:41:38.528Z,64.70
2019-01-29T10:44:06.681Z,65.40
2019-01-29T10:46:34.784Z,65.90
2019-01-29T10:49:02.764Z,64.70
2019-01-29T10:51:30.817Z,64.20
2019-01-29T10:53:59.106Z,62.30
2019-01-29T10:56:27.486Z,63.00
2019-01-29T10:58:55.463Z,62.30
2019-01-29T11:01:23.443Z,62.70
2019-01-29T11:03:51.758Z,62.00
2019-01-29T11:06:19.818Z,62.30
2019-01-29T11:08:47.880Z,64.00
2019-01-29T11:11:16.119Z,63.60
2019-01-29T11:13:44.168Z,61.70
2019-01-29T11:16:12.449Z,61.30
2019-01-29T11:18:40.914Z,60.70
2019-01-29T11:21:08.954Z,59.00
2019-01-29T11:23:36.984Z,59.20
2019-01-29T11:26:05.296Z,59.80
2019-01-29T11:28:33.284Z,59.50
2019-01-29T11:31:01.437Z,59.00
2019-01-29T11:33:29.566Z,57.40
2019-01-29T11:35:57.519Z,56.30
2019-01-29T11:38:25.605Z,57.20
2019-01-29T11:40:53.894Z,57.00
2019-01-29T11:43:22.179Z,55.00
2019-01-29T11:45:52.700Z,56.20
2019-01-29T11:48:21.102Z,56.40
2019-01-29T11:50:49.152Z,55.70
2019-01-29T11:53:17.233Z,55.70
2019-01-29T11:55:45.954Z,53.50
2019-01-29T11:58:14.219Z,53.70
2019-01-29T12:01:00.571Z,54.10
2019-01-29T12:03:32.322Z,54.50
2019-01-29T12:06:01.373Z,55.20
2019-01-29T12:08:33.294Z,55.50
2019-01-29T12:11:01.395Z,56.10
2019-01-29T12:13:29.540Z,57.30
2019-01-29T12:15:58.054Z,57.20
2019-01-29T12:18:26.248Z,56.40
2019-01-29T12:20:54.543Z,57.20
2019-01-29T12:23:22.768Z,58.10
2019-01-29T12:25:51.244Z,58.60
2019-01-29T12:28:19.462Z,57.20
2019-01-29T12:30:47.949Z,56.20
2019-01-29T12:33:16.352Z,55.90
2019-01-29T12:35:44.643Z,53.90
2019-01-29T12:38:12.912Z,54.10
2019-01-29T12:40:41.018Z,54.90
2019-01-29T12:43:09.091Z,55.10
2019-01-29T12:45:37.265Z,54.10
2019-01-29T12:48:05.371Z,53.50
2019-01-29T12:50:33.381Z,53.40
2019-01-29T12:53:06.702Z,51.80
2019-01-29T12:55:35.398Z,49.50
2019-01-29T12:58:05.033Z,50.30
2019-01-29T13:00:37.000Z,50.70
2019-01-29T13:03:05.749Z,50.60
2019-01-29T13:05:35.144Z,51.10
2019-01-29T13:08:03.810Z,48.90
2019-01-29T13:10:34.602Z,49.40
2019-01-29T13:13:07.869Z,47.90
2019-01-29T13:15:38.649Z,49.30
2019-01-29T13:18:08.846Z,47.70
2019-01-29T13:20:36.897Z,46.80
2019-01-29T13:23:05.219Z,47.60
2019-01-29T13:26:01.766Z,47.50
2019-01-29T13:28:45.247Z,47.70
2019-01-29T13:31:14.003Z,47.00
2019-01-29T13:33:50.749Z,47.80
2019-01-29T13:36:20.126Z,46.70
2019-01-29T13:38:48.474Z,45.60
2019-01-29T13:41:16.717Z,44.90
2019-01-29T13:43:45.037Z,43.70
2019-01-29T13:46:13.642Z,44.40
2019-01-29T13:48:41.917Z,41.90
2019-01-29T13:51:10.184Z,36.30
2019-01-29T13:53:38.696Z,35.00
2019-01-29T13:56:07.215Z,36.60
2019-01-29T13:58:35.378Z,37.90
2019-01-29T14:01:04.230Z,37.80
2019-01-29T14:03:32.525Z,35.30
2019-01-29T14:06:03.639Z,34.20
2019-01-29T14:08:32.380Z,34.00
2019-01-29T14:11:00.948Z,34.40
2019-01-29T14:14:16.176Z,35.10
2019-01-29T14:16:44.762Z,36.00
2019-01-29T14:19:13.164Z,32.60
2019-01-29T14:21:41.574Z,31.90
2019-01-29T14:24:10.157Z,31.90
2019-01-29T14:26:47.376Z,30.70
2019-01-29T14:29:09.310Z,31.20
2019-01-29T14:31:37.778Z,32.40
2019-01-29T14:34:06.568Z,33.50
2019-01-29T14:36:35.108Z,31.90
2019-01-29T14:39:38.608Z,32.10
2019-01-29T14:42:07.339Z,31.50
2019-01-29T14:44:40.606Z,31.30
2019-01-29T14:47:08.950Z,30.00
2019-01-29T14:49:38.350Z,29.00
2019-01-29T14:52:28.686Z,29.90
2019-01-29T14:54:57.568Z,31.20
2019-01-29T14:57:25.834Z,31.00
2019-01-29T14:59:54.177Z,31.80
2019-01-29T15:02:22.569Z,34.10
2019-01-29T15:04:50.804Z,31.60
2019-01-29T15:07:18.894Z,33.90
2019-01-29T15:09:46.998Z,34.50
2019-01-29T15:12:18.439Z,36.10
2019-01-29T15:14:46.715Z,36.90
2019-01-29T15:17:43.856Z,37.60
2019-01-29T15:20:14.600Z,37.90
2019-01-29T15:22:43.566Z,37.60
2019-01-29T15:25:12.050Z,38.30
2019-01-29T15:27:41.782Z,38.00
2019-01-29T15:30:19.000Z,38.60
2019-01-29T15:32:49.995Z,41.90
2019-01-29T15:35:18.173Z,43.10
2019-01-29T15:37:46.496Z,43.00
2019-01-29T15:40:18.631Z,44.00
2019-01-29T15:42:46.667Z,43.80
2019-01-29T15:45:17.645Z,43.90
2019-01-29T15:47:45.678Z,45.60
2019-01-29T15:50:18.259Z,43.50
2019-01-29T15:52:48.571Z,45.20
2019-01-29T15:55:17.001Z,46.00
2019-01-29T15:57:45.174Z,47.00
2019-01-29T16:00:20.413Z,45.30
2019-01-29T16:02:48.482Z,47.40
2019-01-29T16:05:19.727Z,46.20
2019-01-29T16:07:47.808Z,48.40
2019-01-29T16:10:20.721Z,48.00
2019-01-29T16:12:48.936Z,45.90
2019-01-29T16:15:18.448Z,47.20
2019-01-29T16:17:46.680Z,48.10
2019-01-29T16:20:17.109Z,49.00
2019-01-29T16:22:45.363Z,48.20
2019-01-29T16:25:14.459Z,48.30
2019-01-29T16:27:42.845Z,48.10
2019-01-29T16:30:18.141Z,49.90
2019-01-29T16:32:46.227Z,48.50
2019-01-29T16:35:17.163Z,48.70
2019-01-29T16:37:45.361Z,48.50
2019-01-29T16:40:14.594Z,48.50
2019-01-29T16:42:42.550Z,49.20
2019-01-29T16:45:14.019Z,49.00
2019-01-29T16:47:42.187Z,49.40
2019-01-29T16:50:11.156Z,49.50
2019-01-29T16:52:39.146Z,49.50
2019-01-29T16:55:10.875Z,50.70
2019-01-29T16:57:38.855Z,50.90
2019-01-29T17:00:20.710Z,51.00
2019-01-29T17:02:48.750Z,52.10
2019-01-29T17:05:16.791Z,52.30
2019-01-29T17:07:44.781Z,52.50
2019-01-29T17:10:13.989Z,53.20
2019-01-29T17:12:41.988Z,53.40
2019-01-29T17:15:16.538Z,54.50
2019-01-29T17:17:44.904Z,55.40
2019-01-29T17:20:35.196Z,55.50
2019-01-29T17:23:03.730Z,55.90
2019-01-29T17:25:34.438Z,56.40
2019-01-29T17:28:02.594Z,56.40
2019-01-29T17:30:36.095Z,56.60
2019-01-29T17:33:05.059Z,56.90
2019-01-29T17:35:36.559Z,56.70
2019-01-29T17:38:04.826Z,57.10
2019-01-29T17:40:32.992Z,57.50
2019-01-29T17:43:00.970Z,57.00
2019-01-29T17:45:32.499Z,57.60
2019-01-29T17:50:31.266Z,57.10
2019-01-29T17:52:59.449Z,57.90
2019-01-29T17:55:29.099Z,57.90
2019-01-29T17:57:57.164Z,58.00
2019-01-29T18:00:29.325Z,58.40
2019-01-29T18:02:57.588Z,58.90
2019-01-29T18:05:25.662Z,59.10
2019-01-29T18:07:54.034Z,59.00
2019-01-29T18:10:22.048Z,58.90
2019-01-29T18:12:50.079Z,59.60
2019-01-29T18:15:21.041Z,60.20
2019-01-29T18:17:49.565Z,60.80
2019-01-29T18:20:17.895Z,60.30
2019-01-29T18:22:45.854Z,62.00
2019-01-29T18:25:15.804Z,61.60
2019-01-29T18:27:43.818Z,61.60
2019-01-29T18:30:18.406Z,61.90
2019-01-29T18:32:46.449Z,61.70
2019-01-29T18:35:14.491Z,61.90
2019-01-29T18:37:42.477Z,62.30
2019-01-29T18:40:14.415Z,62.00
2019-01-29T18:42:42.684Z,62.20
2019-01-29T18:45:11.253Z,61.40
2019-01-29T18:47:39.349Z,62.20
2019-01-29T18:50:09.582Z,62.30
2019-01-29T18:52:38.949Z,63.60
2019-01-29T18:55:07.748Z,62.80
2019-01-29T18:57:36.131Z,61.70
2019-01-29T19:00:07.910Z,61.20
2019-01-29T19:02:37.038Z,61.10
2019-01-29T19:05:06.689Z,62.00
2019-01-29T19:07:35.174Z,61.60
2019-01-29T19:10:03.340Z,61.40
2019-01-29T19:12:31.560Z,62.30
2019-01-29T19:15:00.046Z,61.70
2019-01-29T19:17:28.460Z,61.60
2019-01-29T19:19:56.467Z,62.60
2019-01-29T19:22:24.490Z,62.00
2019-01-29T19:24:52.628Z,62.00
2019-01-29T19:27:20.901Z,61.40
2019-01-29T19:29:49.171Z,60.90
2019-01-29T19:32:17.770Z,62.20
2019-01-29T19:34:46.608Z,61.70
2019-01-29T19:37:14.569Z,62.00
2019-01-29T19:39:48.266Z,61.90
2019-01-29T19:42:27.125Z,62.00
2019-01-29T19:44:47.008Z,60.90
2019-01-29T19:47:17.306Z,61.20
2019-01-29T19:49:45.546Z,60.20
2019-01-29T19:52:13.980Z,60.70
2019-01-29T19:54:42.005Z,60.50
2019-01-29T19:57:09.977Z,60.10
2019-01-29T19:59:38.071Z,60.90
2019-01-29T20:02:06.839Z,61.10
2019-01-29T20:04:35.187Z,60.80
2019-01-29T20:07:04.529Z,60.80
2019-01-29T20:09:32.754Z,60.40
2019-01-29T20:12:00.831Z,60.40
2019-01-29T20:14:28.893Z,60.90
2019-01-29T20:16:56.858Z,60.50
2019-01-29T20:19:24.859Z,60.70
2019-01-29T20:21:54.165Z,60.80
2019-01-29T20:24:23.172Z,60.70
2019-01-29T20:26:51.440Z,60.50
2019-01-29T20:29:20.586Z,61.00
2019-01-29T20:31:48.687Z,61.00
2019-01-29T20:34:17.346Z,61.10
2019-01-29T20:36:46.248Z,60.80
2019-01-29T20:39:14.642Z,60.70
2019-01-29T20:41:43.010Z,61.00
2019-01-29T20:44:11.002Z,61.50
2019-01-29T20:46:39.087Z,61.30
2019-01-29T20:49:07.155Z,60.90
2019-01-29T20:51:35.296Z,59.80
2019-01-29T20:54:03.299Z,59.90
2019-01-29T20:56:31.699Z,60.00
2019-01-29T20:58:59.796Z,59.90
2019-01-29T21:01:28.144Z,60.60
2019-01-29T21:03:56.283Z,61.40
2019-01-29T21:06:24.227Z,61.50
2019-01-29T21:08:52.560Z,62.40
2019-01-29T21:11:20.705Z,61.30
2019-01-29T21:13:49.765Z,61.70
2019-01-29T21:16:17.851Z,61.80
2019-01-29T21:18:45.903Z,62.70
2019-01-29T21:21:13.953Z,63.60
2019-01-29T21:23:42.947Z,64.70
2019-01-29T21:26:11.246Z,64.10
2019-01-29T21:28:39.290Z,62.40
2019-01-29T21:31:07.361Z,62.40
2019-01-29T21:33:35.337Z,61.90
2019-01-29T21:36:03.344Z,61.60
2019-01-29T21:38:32.242Z,61.50
2019-01-29T21:41:00.427Z,61.60
2019-01-29T21:43:28.778Z,61.40
2019-01-29T21:45:56.966Z,61.70
2019-01-29T21:48:25.249Z,61.50
2019-01-29T21:50:53.403Z,61.90
2019-01-29T21:53:21.454Z,62.60
2019-01-29T21:55:49.442Z,62.20
2019-01-29T21:58:17.561Z,61.90
2019-01-29T22:00:45.888Z,62.70
2019-01-29T22:03:15.064Z,61.50
2019-01-29T22:05:43.196Z,62.10
2019-01-29T22:08:11.727Z,62.00
2019-01-29T22:10:39.959Z,62.20
2019-01-29T22:13:10.083Z,63.00
2019-01-29T22:15:38.371Z,62.20
2019-01-29T22:18:08.747Z,62.90
2019-01-29T22:20:36.746Z,63.20
2019-01-29T22:23:05.551Z,65.90
2019-01-29T22:25:37.422Z,63.50
2019-01-29T22:28:12.403Z,62.00
2019-01-29T22:30:42.269Z,62.80
2019-01-29T22:33:16.652Z,62.40
2019-01-29T22:35:44.825Z,62.50
2019-01-29T22:38:12.859Z,62.00
2019-01-29T22:40:41.307Z,63.00
2019-01-29T22:43:09.534Z,64.40
2019-01-29T22:45:37.566Z,62.70
2019-01-29T22:48:07.375Z,61.30
2019-01-29T22:50:45.927Z,62.00
2019-01-29T22:53:26.213Z,62.20
2019-01-29T22:55:54.450Z,62.50
2019-01-29T22:58:51.973Z,63.00
2019-01-29T23:01:34.175Z,62.50
2019-01-29T23:04:33.201Z,62.50
2019-01-29T23:07:21.110Z,63.20
2019-01-29T23:09:49.540Z,63.40
2019-01-29T23:12:17.688Z,64.30
2019-01-29T23:14:45.708Z,64.70
2019-01-29T23:17:13.727Z,65.30
2019-01-29T23:19:41.732Z,65.00
2019-01-29T23:22:09.799Z,64.50
2019-01-29T23:24:37.769Z,64.70
2019-01-29T23:27:05.997Z,64.40
2019-01-29T23:29:43.332Z,67.00
2019-01-29T23:32:05.413Z,67.50
2019-01-29T23:34:33.487Z,66.90
2019-01-29T23:37:01.474Z,67.00
2019-01-29T23:39:29.458Z,67.80
2019-01-29T23:41:57.495Z,69.20
2019-01-29T23:44:26.425Z,62.50
2019-01-29T23:46:54.416Z,64.80
2019-01-29T23:49:22.644Z,64.00
2019-01-29T23:51:50.714Z,62.40
2019-01-29T23:54:18.723Z,62.40
2019-01-29T23:56:47.082Z,61.60
2019-01-29T23:59:15.039Z,62.20
